sensor_id;sensor_type;location;lat;lon;timestamp;temperature;humidity
71173;DHT22;58875;51.996;4.504;2023-08-12T00:00:10;21.40;77.67
71173;DHT22;58875;51.996;4.504;2023-08-12T00:02:43;21.40;77.47
71173;DHT22;58875;51.996;4.504;2023-08-12T00:05:10;21.44;77.71
71173;DHT22;58875;51.996;4.504;2023-08-12T00:07:40;21.44;77.53
71173;DHT22;58875;51.996;4.504;2023-08-12T00:10:10;21.43;77.57
71173;DHT22;58875;51.996;4.504;2023-08-12T00:12:37;21.47;77.60
71173;DHT22;58875;51.996;4.504;2023-08-12T00:15:05;21.51;77.69
71173;DHT22;58875;51.996;4.504;2023-08-12T00:17:33;21.45;77.55
71173;DHT22;58875;51.996;4.504;2023-08-12T00:20:01;21.54;77.42
71173;DHT22;58875;51.996;4.504;2023-08-12T00:22:30;21.55;77.34
71173;DHT22;58875;51.996;4.504;2023-08-12T00:24:56;21.58;77.15
71173;DHT22;58875;51.996;4.504;2023-08-12T00:27:21;21.57;77.15
71173;DHT22;58875;51.996;4.504;2023-08-12T00:29:48;21.55;77.27
71173;DHT22;58875;51.996;4.504;2023-08-12T00:32:13;21.53;77.26
71173;DHT22;58875;51.996;4.504;2023-08-12T00:34:39;21.57;77.29
71173;DHT22;58875;51.996;4.504;2023-08-12T00:37:04;21.57;77.22
71173;DHT22;58875;51.996;4.504;2023-08-12T00:39:30;21.55;77.15
71173;DHT22;58875;51.996;4.504;2023-08-12T00:41:55;21.54;77.35
71173;DHT22;58875;51.996;4.504;2023-08-12T00:44:21;21.54;77.36
71173;DHT22;58875;51.996;4.504;2023-08-12T00:46:48;21.62;77.29
71173;DHT22;58875;51.996;4.504;2023-08-12T00:49:15;21.61;77.25
71173;DHT22;58875;51.996;4.504;2023-08-12T00:51:43;21.62;77.17
71173;DHT22;58875;51.996;4.504;2023-08-12T00:54:14;21.59;77.20
71173;DHT22;58875;51.996;4.504;2023-08-12T00:56:41;21.62;77.22
71173;DHT22;58875;51.996;4.504;2023-08-12T00:59:08;21.57;77.28
71173;DHT22;58875;51.996;4.504;2023-08-12T01:01:40;21.54;77.42
71173;DHT22;58875;51.996;4.504;2023-08-12T01:04:09;21.51;77.55
71173;DHT22;58875;51.996;4.504;2023-08-12T01:06:35;21.55;77.53
71173;DHT22;58875;51.996;4.504;2023-08-12T01:09:03;21.57;77.61
71173;DHT22;58875;51.996;4.504;2023-08-12T01:14:27;21.57;77.54
71173;DHT22;58875;51.996;4.504;2023-08-12T01:16:59;21.57;77.60
71173;DHT22;58875;51.996;4.504;2023-08-12T01:21:55;21.58;77.64
71173;DHT22;58875;51.996;4.504;2023-08-12T01:24:24;21.59;77.63
71173;DHT22;58875;51.996;4.504;2023-08-12T01:26:50;21.57;77.73
71173;DHT22;58875;51.996;4.504;2023-08-12T01:29:17;21.58;77.60
71173;DHT22;58875;51.996;4.504;2023-08-12T01:31:50;21.58;77.71
71173;DHT22;58875;51.996;4.504;2023-08-12T01:34:24;21.58;77.73
71173;DHT22;58875;51.996;4.504;2023-08-12T01:36:55;21.59;77.80
71173;DHT22;58875;51.996;4.504;2023-08-12T01:39:23;21.62;77.81
71173;DHT22;58875;51.996;4.504;2023-08-12T01:41:50;21.64;77.71
71173;DHT22;58875;51.996;4.504;2023-08-12T01:44:17;21.59;77.86
71173;DHT22;58875;51.996;4.504;2023-08-12T01:46:46;21.59;77.93
71173;DHT22;58875;51.996;4.504;2023-08-12T01:49:11;21.57;77.94
71173;DHT22;58875;51.996;4.504;2023-08-12T01:51:37;21.55;78.06
71173;DHT22;58875;51.996;4.504;2023-08-12T01:54:06;21.59;77.97
71173;DHT22;58875;51.996;4.504;2023-08-12T01:56:31;21.54;78.22
71173;DHT22;58875;51.996;4.504;2023-08-12T01:58:57;21.51;78.36
71173;DHT22;58875;51.996;4.504;2023-08-12T02:01:22;21.51;78.47
71173;DHT22;58875;51.996;4.504;2023-08-12T02:03:48;21.51;78.45
71173;DHT22;58875;51.996;4.504;2023-08-12T02:06:14;21.53;78.37
71173;DHT22;58875;51.996;4.504;2023-08-12T02:08:39;21.54;78.43
71173;DHT22;58875;51.996;4.504;2023-08-12T02:11:05;21.54;78.42
71173;DHT22;58875;51.996;4.504;2023-08-12T02:13:30;21.51;78.52
71173;DHT22;58875;51.996;4.504;2023-08-12T02:15:56;21.48;78.53
71173;DHT22;58875;51.996;4.504;2023-08-12T02:18:21;21.48;78.68
71173;DHT22;58875;51.996;4.504;2023-08-12T02:20:47;21.50;78.69
71173;DHT22;58875;51.996;4.504;2023-08-12T02:23:13;21.54;78.61
71173;DHT22;58875;51.996;4.504;2023-08-12T02:25:39;21.53;78.66
71173;DHT22;58875;51.996;4.504;2023-08-12T02:28:05;21.51;78.74
71173;DHT22;58875;51.996;4.504;2023-08-12T02:30:30;21.55;78.95
71173;DHT22;58875;51.996;4.504;2023-08-12T02:32:56;21.53;79.18
71173;DHT22;58875;51.996;4.504;2023-08-12T02:35:22;21.54;79.47
71173;DHT22;58875;51.996;4.504;2023-08-12T02:37:48;21.57;79.60
71173;DHT22;58875;51.996;4.504;2023-08-12T02:40:14;21.54;79.74
71173;DHT22;58875;51.996;4.504;2023-08-12T02:42:39;21.53;79.94
71173;DHT22;58875;51.996;4.504;2023-08-12T02:45:05;21.51;80.14
71173;DHT22;58875;51.996;4.504;2023-08-12T02:47:31;21.47;80.33
71173;DHT22;58875;51.996;4.504;2023-08-12T02:49:57;21.45;80.42
71173;DHT22;58875;51.996;4.504;2023-08-12T02:52:22;21.47;80.53
71173;DHT22;58875;51.996;4.504;2023-08-12T02:54:48;21.44;80.54
71173;DHT22;58875;51.996;4.504;2023-08-12T02:57:14;21.50;80.61
71173;DHT22;58875;51.996;4.504;2023-08-12T02:59:39;21.47;80.65
71173;DHT22;58875;51.996;4.504;2023-08-12T03:02:05;21.47;80.78
71173;DHT22;58875;51.996;4.504;2023-08-12T03:04:31;21.47;80.83
71173;DHT22;58875;51.996;4.504;2023-08-12T03:06:56;21.47;81.03
71173;DHT22;58875;51.996;4.504;2023-08-12T03:09:22;21.45;81.13
71173;DHT22;58875;51.996;4.504;2023-08-12T03:11:47;21.48;81.09
71173;DHT22;58875;51.996;4.504;2023-08-12T03:14:13;21.43;81.21
71173;DHT22;58875;51.996;4.504;2023-08-12T03:16:38;21.43;81.28
71173;DHT22;58875;51.996;4.504;2023-08-12T03:19:04;21.44;81.30
71173;DHT22;58875;51.996;4.504;2023-08-12T03:21:29;21.44;81.32
71173;DHT22;58875;51.996;4.504;2023-08-12T03:23:55;21.43;81.37
71173;DHT22;58875;51.996;4.504;2023-08-12T03:26:20;21.45;81.27
71173;DHT22;58875;51.996;4.504;2023-08-12T03:28:46;21.44;81.15
71173;DHT22;58875;51.996;4.504;2023-08-12T03:31:11;21.38;81.26
71173;DHT22;58875;51.996;4.504;2023-08-12T03:33:37;21.38;81.21
71173;DHT22;58875;51.996;4.504;2023-08-12T03:36:03;21.41;81.28
71173;DHT22;58875;51.996;4.504;2023-08-12T03:38:29;21.35;81.32
71173;DHT22;58875;51.996;4.504;2023-08-12T03:40:54;21.37;81.36
71173;DHT22;58875;51.996;4.504;2023-08-12T03:43:21;21.33;81.49
71173;DHT22;58875;51.996;4.504;2023-08-12T03:45:47;21.31;81.63
71173;DHT22;58875;51.996;4.504;2023-08-12T03:48:13;21.31;81.65
71173;DHT22;58875;51.996;4.504;2023-08-12T03:50:40;21.30;81.79
71173;DHT22;58875;51.996;4.504;2023-08-12T03:53:06;21.33;81.80
71173;DHT22;58875;51.996;4.504;2023-08-12T03:55:34;21.34;81.74
71173;DHT22;58875;51.996;4.504;2023-08-12T03:58:01;21.35;81.73
71173;DHT22;58875;51.996;4.504;2023-08-12T04:00:27;21.31;81.85
71173;DHT22;58875;51.996;4.504;2023-08-12T04:02:53;21.28;81.87
71173;DHT22;58875;51.996;4.504;2023-08-12T04:05:19;21.27;82.10
71173;DHT22;58875;51.996;4.504;2023-08-12T04:07:44;21.22;82.16
71173;DHT22;58875;51.996;4.504;2023-08-12T04:10:10;21.23;82.09
71173;DHT22;58875;51.996;4.504;2023-08-12T04:12:37;21.23;82.17
71173;DHT22;58875;51.996;4.504;2023-08-12T04:15:03;21.19;82.10
71173;DHT22;58875;51.996;4.504;2023-08-12T04:17:30;21.16;82.23
71173;DHT22;58875;51.996;4.504;2023-08-12T04:19:55;21.22;82.12
71173;DHT22;58875;51.996;4.504;2023-08-12T04:22:21;21.23;82.23
71173;DHT22;58875;51.996;4.504;2023-08-12T04:24:46;21.26;82.18
71173;DHT22;58875;51.996;4.504;2023-08-12T04:27:12;21.28;82.23
71173;DHT22;58875;51.996;4.504;2023-08-12T04:29:37;21.27;82.14
71173;DHT22;58875;51.996;4.504;2023-08-12T04:32:03;21.28;82.25
71173;DHT22;58875;51.996;4.504;2023-08-12T04:34:29;21.27;82.27
71173;DHT22;58875;51.996;4.504;2023-08-12T04:36:54;21.28;82.37
71173;DHT22;58875;51.996;4.504;2023-08-12T04:39:20;21.28;82.36
71173;DHT22;58875;51.996;4.504;2023-08-12T04:41:45;21.33;82.33
71173;DHT22;58875;51.996;4.504;2023-08-12T04:44:10;21.35;82.34
71173;DHT22;58875;51.996;4.504;2023-08-12T04:46:36;21.35;82.37
71173;DHT22;58875;51.996;4.504;2023-08-12T04:49:02;21.37;82.40
71173;DHT22;58875;51.996;4.504;2023-08-12T04:51:28;21.37;82.53
71173;DHT22;58875;51.996;4.504;2023-08-12T04:53:53;21.37;82.39
71173;DHT22;58875;51.996;4.504;2023-08-12T04:56:19;21.38;82.47
71173;DHT22;58875;51.996;4.504;2023-08-12T04:58:44;21.31;82.45
71173;DHT22;58875;51.996;4.504;2023-08-12T05:01:10;21.27;82.66
71173;DHT22;58875;51.996;4.504;2023-08-12T05:03:35;21.20;82.90
71173;DHT22;58875;51.996;4.504;2023-08-12T05:06:01;21.11;82.96
71173;DHT22;58875;51.996;4.504;2023-08-12T05:08:27;21.08;83.12
71173;DHT22;58875;51.996;4.504;2023-08-12T05:10:53;21.11;83.18
71173;DHT22;58875;51.996;4.504;2023-08-12T05:13:19;21.13;83.28
71173;DHT22;58875;51.996;4.504;2023-08-12T05:15:46;21.11;83.50
71173;DHT22;58875;51.996;4.504;2023-08-12T05:18:13;21.11;83.49
71173;DHT22;58875;51.996;4.504;2023-08-12T05:20:42;21.08;83.66
71173;DHT22;58875;51.996;4.504;2023-08-12T05:23:08;20.97;83.76
71173;DHT22;58875;51.996;4.504;2023-08-12T05:25:34;20.93;84.30
71173;DHT22;58875;51.996;4.504;2023-08-12T05:28:02;20.93;84.61
71173;DHT22;58875;51.996;4.504;2023-08-12T05:30:28;20.87;84.56
71173;DHT22;58875;51.996;4.504;2023-08-12T05:32:53;20.80;84.73
71173;DHT22;58875;51.996;4.504;2023-08-12T05:35:19;20.77;85.13
71173;DHT22;58875;51.996;4.504;2023-08-12T05:37:45;20.82;85.15
71173;DHT22;58875;51.996;4.504;2023-08-12T05:40:11;20.77;85.02
71173;DHT22;58875;51.996;4.504;2023-08-12T05:42:37;20.76;85.33
71173;DHT22;58875;51.996;4.504;2023-08-12T05:45:03;20.77;85.31
71173;DHT22;58875;51.996;4.504;2023-08-12T05:47:29;20.80;85.39
71173;DHT22;58875;51.996;4.504;2023-08-12T05:49:54;20.83;85.35
71173;DHT22;58875;51.996;4.504;2023-08-12T05:52:20;20.85;85.10
71173;DHT22;58875;51.996;4.504;2023-08-12T05:54:46;20.76;85.13
71173;DHT22;58875;51.996;4.504;2023-08-12T05:57:11;20.71;85.38
71173;DHT22;58875;51.996;4.504;2023-08-12T05:59:37;20.71;85.67
71173;DHT22;58875;51.996;4.504;2023-08-12T06:02:03;20.80;85.46
71173;DHT22;58875;51.996;4.504;2023-08-12T06:04:29;20.82;85.58
71173;DHT22;58875;51.996;4.504;2023-08-12T06:06:55;20.86;85.43
71173;DHT22;58875;51.996;4.504;2023-08-12T06:09:21;20.90;85.20
71173;DHT22;58875;51.996;4.504;2023-08-12T06:11:47;20.83;85.32
71173;DHT22;58875;51.996;4.504;2023-08-12T06:14:13;20.73;85.26
71173;DHT22;58875;51.996;4.504;2023-08-12T06:16:38;20.77;85.53
71173;DHT22;58875;51.996;4.504;2023-08-12T06:19:04;20.73;85.58
71173;DHT22;58875;51.996;4.504;2023-08-12T06:21:29;20.73;85.59
71173;DHT22;58875;51.996;4.504;2023-08-12T06:23:55;20.72;85.58
71173;DHT22;58875;51.996;4.504;2023-08-12T06:26:21;20.68;85.55
71173;DHT22;58875;51.996;4.504;2023-08-12T06:28:47;20.66;85.85
71173;DHT22;58875;51.996;4.504;2023-08-12T06:31:12;20.75;85.85
71173;DHT22;58875;51.996;4.504;2023-08-12T06:33:38;20.77;85.49
71173;DHT22;58875;51.996;4.504;2023-08-12T06:36:04;20.77;85.63
71173;DHT22;58875;51.996;4.504;2023-08-12T06:38:29;20.83;85.52
71173;DHT22;58875;51.996;4.504;2023-08-12T06:40:55;20.85;85.50
71173;DHT22;58875;51.996;4.504;2023-08-12T06:43:21;20.73;85.35
71173;DHT22;58875;51.996;4.504;2023-08-12T06:45:46;20.68;85.84
71173;DHT22;58875;51.996;4.504;2023-08-12T06:48:12;20.61;86.09
71173;DHT22;58875;51.996;4.504;2023-08-12T06:50:37;20.66;86.21
71173;DHT22;58875;51.996;4.504;2023-08-12T06:53:03;20.69;85.89
71173;DHT22;58875;51.996;4.504;2023-08-12T06:55:29;20.57;86.01
71173;DHT22;58875;51.996;4.504;2023-08-12T06:57:54;20.57;86.12
71173;DHT22;58875;51.996;4.504;2023-08-12T07:00:20;20.65;86.28
71173;DHT22;58875;51.996;4.504;2023-08-12T07:02:46;20.62;86.20
71173;DHT22;58875;51.996;4.504;2023-08-12T07:05:12;20.63;86.28
71173;DHT22;58875;51.996;4.504;2023-08-12T07:07:41;20.66;86.16
71173;DHT22;58875;51.996;4.504;2023-08-12T07:10:06;20.57;86.13
71173;DHT22;58875;51.996;4.504;2023-08-12T07:12:32;20.20;84.51
71173;DHT22;58875;51.996;4.504;2023-08-12T07:14:58;19.32;81.98
71173;DHT22;58875;51.996;4.504;2023-08-12T07:17:24;18.81;84.01
71173;DHT22;58875;51.996;4.504;2023-08-12T07:19:49;18.47;83.82
71173;DHT22;58875;51.996;4.504;2023-08-12T07:22:15;18.36;84.76
71173;DHT22;58875;51.996;4.504;2023-08-12T07:24:44;18.43;85.40
71173;DHT22;58875;51.996;4.504;2023-08-12T07:27:10;18.22;84.66
71173;DHT22;58875;51.996;4.504;2023-08-12T07:29:36;18.10;84.84
71173;DHT22;58875;51.996;4.504;2023-08-12T07:32:01;18.07;84.86
71173;DHT22;58875;51.996;4.504;2023-08-12T07:34:27;18.13;84.72
71173;DHT22;58875;51.996;4.504;2023-08-12T07:36:52;17.99;84.80
71173;DHT22;58875;51.996;4.504;2023-08-12T07:39:18;18.13;84.95
71173;DHT22;58875;51.996;4.504;2023-08-12T07:41:44;18.10;84.53
71173;DHT22;58875;51.996;4.504;2023-08-12T07:44:09;18.23;84.93
71173;DHT22;58875;51.996;4.504;2023-08-12T07:46:35;18.22;84.36
71173;DHT22;58875;51.996;4.504;2023-08-12T07:49:01;18.16;84.43
71173;DHT22;58875;51.996;4.504;2023-08-12T07:51:26;18.17;85.19
71173;DHT22;58875;51.996;4.504;2023-08-12T07:53:52;18.20;85.31
71173;DHT22;58875;51.996;4.504;2023-08-12T07:56:17;18.24;85.54
71173;DHT22;58875;51.996;4.504;2023-08-12T07:58:43;18.34;85.61
71173;DHT22;58875;51.996;4.504;2023-08-12T08:01:09;18.36;85.45
71173;DHT22;58875;51.996;4.504;2023-08-12T08:03:35;18.40;85.27
71173;DHT22;58875;51.996;4.504;2023-08-12T08:06:01;18.47;85.24
71173;DHT22;58875;51.996;4.504;2023-08-12T08:08:26;18.48;85.31
71173;DHT22;58875;51.996;4.504;2023-08-12T08:10:52;18.47;85.00
71173;DHT22;58875;51.996;4.504;2023-08-12T08:13:17;18.50;85.31
71173;DHT22;58875;51.996;4.504;2023-08-12T08:15:43;18.65;85.20
71173;DHT22;58875;51.996;4.504;2023-08-12T08:18:09;18.69;85.10
71173;DHT22;58875;51.996;4.504;2023-08-12T08:20:35;18.84;84.73
71173;DHT22;58875;51.996;4.504;2023-08-12T08:23:01;18.76;84.25
71173;DHT22;58875;51.996;4.504;2023-08-12T08:25:26;18.75;84.86
71173;DHT22;58875;51.996;4.504;2023-08-12T08:27:52;18.94;84.93
71173;DHT22;58875;51.996;4.504;2023-08-12T08:30:18;18.94;84.97
71173;DHT22;58875;51.996;4.504;2023-08-12T08:32:44;18.95;84.59
71173;DHT22;58875;51.996;4.504;2023-08-12T08:35:12;19.08;84.83
71173;DHT22;58875;51.996;4.504;2023-08-12T08:37:38;19.36;85.49
71173;DHT22;58875;51.996;4.504;2023-08-12T08:40:04;19.52;84.67
71173;DHT22;58875;51.996;4.504;2023-08-12T08:42:31;19.57;84.17
71173;DHT22;58875;51.996;4.504;2023-08-12T08:45:00;19.66;84.51
71173;DHT22;58875;51.996;4.504;2023-08-12T08:47:27;19.69;84.15
71173;DHT22;58875;51.996;4.504;2023-08-12T08:49:57;19.87;83.92
71173;DHT22;58875;51.996;4.504;2023-08-12T08:52:26;20.08;84.02
71173;DHT22;58875;51.996;4.504;2023-08-12T08:54:52;20.26;83.38
71173;DHT22;58875;51.996;4.504;2023-08-12T08:57:19;20.36;81.70
71173;DHT22;58875;51.996;4.504;2023-08-12T08:59:47;20.52;82.38
71173;DHT22;58875;51.996;4.504;2023-08-12T09:02:17;20.61;82.31
71173;DHT22;58875;51.996;4.504;2023-08-12T09:04:46;20.86;81.91
71173;DHT22;58875;51.996;4.504;2023-08-12T09:07:12;20.73;80.21
71173;DHT22;58875;51.996;4.504;2023-08-12T09:09:45;20.79;80.47
71173;DHT22;58875;51.996;4.504;2023-08-12T09:12:15;20.97;80.97
71173;DHT22;58875;51.996;4.504;2023-08-12T09:14:42;21.04;78.12
71173;DHT22;58875;51.996;4.504;2023-08-12T09:17:09;20.92;77.12
71173;DHT22;58875;51.996;4.504;2023-08-12T09:19:36;20.85;77.41
71173;DHT22;58875;51.996;4.504;2023-08-12T09:22:07;20.89;77.74
71173;DHT22;58875;51.996;4.504;2023-08-12T09:24:34;21.00;78.27
71173;DHT22;58875;51.996;4.504;2023-08-12T09:27:00;21.04;77.65
71173;DHT22;58875;51.996;4.504;2023-08-12T09:29:34;21.20;78.15
71173;DHT22;58875;51.996;4.504;2023-08-12T09:32:13;21.48;75.46
71173;DHT22;58875;51.996;4.504;2023-08-12T09:34:50;21.58;71.57
71173;DHT22;58875;51.996;4.504;2023-08-12T09:37:17;21.34;70.48
71173;DHT22;58875;51.996;4.504;2023-08-12T09:39:44;21.19;70.85
71173;DHT22;58875;51.996;4.504;2023-08-12T09:42:13;21.35;69.07
71173;DHT22;58875;51.996;4.504;2023-08-12T09:44:39;21.14;69.85
71173;DHT22;58875;51.996;4.504;2023-08-12T09:47:06;21.02;70.99
71173;DHT22;58875;51.996;4.504;2023-08-12T09:49:34;20.86;72.35
71173;DHT22;58875;51.996;4.504;2023-08-12T09:52:04;20.66;72.10
71173;DHT22;58875;51.996;4.504;2023-08-12T09:54:34;20.55;72.56
71173;DHT22;58875;51.996;4.504;2023-08-12T09:57:02;20.73;72.84
71173;DHT22;58875;51.996;4.504;2023-08-12T09:59:31;20.96;71.63
71173;DHT22;58875;51.996;4.504;2023-08-12T10:02:02;21.16;72.49
71173;DHT22;58875;51.996;4.504;2023-08-12T10:04:44;21.48;71.19
71173;DHT22;58875;51.996;4.504;2023-08-12T10:07:11;21.50;71.88
71173;DHT22;58875;51.996;4.504;2023-08-12T10:09:40;21.59;71.29
71173;DHT22;58875;51.996;4.504;2023-08-12T10:12:07;21.57;70.44
71173;DHT22;58875;51.996;4.504;2023-08-12T10:14:33;21.55;72.13
71173;DHT22;58875;51.996;4.504;2023-08-12T10:16:59;21.71;71.49
71173;DHT22;58875;51.996;4.504;2023-08-12T10:19:26;21.71;70.81
71173;DHT22;58875;51.996;4.504;2023-08-12T10:21:55;21.74;71.68
71173;DHT22;58875;51.996;4.504;2023-08-12T10:24:23;21.77;71.86
71173;DHT22;58875;51.996;4.504;2023-08-12T10:26:51;21.91;70.29
71173;DHT22;58875;51.996;4.504;2023-08-12T10:29:18;22.05;70.62
71173;DHT22;58875;51.996;4.504;2023-08-12T10:31:46;22.22;71.07
71173;DHT22;58875;51.996;4.504;2023-08-12T10:34:23;22.23;69.75
71173;DHT22;58875;51.996;4.504;2023-08-12T10:36:55;21.89;69.50
71173;DHT22;58875;51.996;4.504;2023-08-12T10:39:27;21.84;69.93
71173;DHT22;58875;51.996;4.504;2023-08-12T10:41:57;22.02;69.96
71173;DHT22;58875;51.996;4.504;2023-08-12T10:44:40;22.23;69.47
71173;DHT22;58875;51.996;4.504;2023-08-12T10:47:10;22.39;68.77
71173;DHT22;58875;51.996;4.504;2023-08-12T10:49:50;22.36;67.34
71173;DHT22;58875;51.996;4.504;2023-08-12T10:52:32;22.20;66.85
71173;DHT22;58875;51.996;4.504;2023-08-12T10:55:24;22.08;66.65
71173;DHT22;58875;51.996;4.504;2023-08-12T10:57:52;22.12;65.30
71173;DHT22;58875;51.996;4.504;2023-08-12T11:00:26;22.09;67.43
71173;DHT22;58875;51.996;4.504;2023-08-12T11:02:53;22.23;67.99
71173;DHT22;58875;51.996;4.504;2023-08-12T11:05:19;22.25;68.41
71173;DHT22;58875;51.996;4.504;2023-08-12T11:07:56;22.30;66.73
71173;DHT22;58875;51.996;4.504;2023-08-12T11:10:25;22.45;67.46
71173;DHT22;58875;51.996;4.504;2023-08-12T11:15:16;22.46;66.61
71173;DHT22;58875;51.996;4.504;2023-08-12T11:17:42;22.60;68.81
71173;DHT22;58875;51.996;4.504;2023-08-12T11:20:10;22.78;67.15
71173;DHT22;58875;51.996;4.504;2023-08-12T11:22:42;22.80;65.51
71173;DHT22;58875;51.996;4.504;2023-08-12T11:25:09;22.88;66.90
71173;DHT22;58875;51.996;4.504;2023-08-12T11:27:43;22.94;66.99
71173;DHT22;58875;51.996;4.504;2023-08-12T11:30:11;22.97;65.70
71173;DHT22;58875;51.996;4.504;2023-08-12T11:32:38;22.98;65.62
71173;DHT22;58875;51.996;4.504;2023-08-12T11:35:06;23.03;65.84
71173;DHT22;58875;51.996;4.504;2023-08-12T11:37:35;22.97;67.33
71173;DHT22;58875;51.996;4.504;2023-08-12T11:40:02;22.77;67.45
71173;DHT22;58875;51.996;4.504;2023-08-12T11:42:28;23.04;68.12
71173;DHT22;58875;51.996;4.504;2023-08-12T11:44:54;23.32;64.30
71173;DHT22;58875;51.996;4.504;2023-08-12T11:47:19;23.11;64.81
71173;DHT22;58875;51.996;4.504;2023-08-12T11:49:45;23.04;64.68
71173;DHT22;58875;51.996;4.504;2023-08-12T11:52:11;22.90;66.14
71173;DHT22;58875;51.996;4.504;2023-08-12T11:54:37;23.15;65.34
71173;DHT22;58875;51.996;4.504;2023-08-12T11:57:04;23.25;65.25
71173;DHT22;58875;51.996;4.504;2023-08-12T11:59:31;23.12;64.57
71173;DHT22;58875;51.996;4.504;2023-08-12T12:01:56;23.12;65.54
71173;DHT22;58875;51.996;4.504;2023-08-12T12:04:22;23.28;64.27
71173;DHT22;58875;51.996;4.504;2023-08-12T12:06:48;23.24;65.42
71173;DHT22;58875;51.996;4.504;2023-08-12T12:09:14;23.15;64.48
71173;DHT22;58875;51.996;4.504;2023-08-12T12:11:41;23.00;64.07
71173;DHT22;58875;51.996;4.504;2023-08-12T12:14:09;22.84;65.10
71173;DHT22;58875;51.996;4.504;2023-08-12T12:19:18;22.86;63.73
71173;DHT22;58875;51.996;4.504;2023-08-12T12:21:47;22.57;64.35
71173;DHT22;58875;51.996;4.504;2023-08-12T12:24:13;22.47;65.61
71173;DHT22;58875;51.996;4.504;2023-08-12T12:26:39;22.52;66.04
71173;DHT22;58875;51.996;4.504;2023-08-12T12:29:05;22.73;66.61
71173;DHT22;58875;51.996;4.504;2023-08-12T12:31:32;22.98;66.48
71173;DHT22;58875;51.996;4.504;2023-08-12T12:33:59;22.93;64.41
71173;DHT22;58875;51.996;4.504;2023-08-12T12:36:25;22.91;65.89
71173;DHT22;58875;51.996;4.504;2023-08-12T12:38:51;22.91;64.23
71173;DHT22;58875;51.996;4.504;2023-08-12T12:41:16;22.86;65.11
71173;DHT22;58875;51.996;4.504;2023-08-12T12:43:42;22.66;65.44
71173;DHT22;58875;51.996;4.504;2023-08-12T12:46:08;22.71;65.87
71173;DHT22;58875;51.996;4.504;2023-08-12T12:48:34;22.50;66.78
71173;DHT22;58875;51.996;4.504;2023-08-12T12:50:59;22.63;65.66
71173;DHT22;58875;51.996;4.504;2023-08-12T12:53:25;22.45;64.59
71173;DHT22;58875;51.996;4.504;2023-08-12T12:55:50;22.43;64.89
71173;DHT22;58875;51.996;4.504;2023-08-12T12:58:16;22.43;64.63
71173;DHT22;58875;51.996;4.504;2023-08-12T13:00:42;22.28;65.39
71173;DHT22;58875;51.996;4.504;2023-08-12T13:03:08;22.35;65.73
71173;DHT22;58875;51.996;4.504;2023-08-12T13:05:33;22.64;66.12
71173;DHT22;58875;51.996;4.504;2023-08-12T13:07:59;22.78;65.10
71173;DHT22;58875;51.996;4.504;2023-08-12T13:10:24;22.73;64.57
71173;DHT22;58875;51.996;4.504;2023-08-12T13:12:50;22.66;64.78
71173;DHT22;58875;51.996;4.504;2023-08-12T13:15:15;22.54;64.00
71173;DHT22;58875;51.996;4.504;2023-08-12T13:17:41;22.53;63.80
71173;DHT22;58875;51.996;4.504;2023-08-12T13:20:07;22.33;64.37
71173;DHT22;58875;51.996;4.504;2023-08-12T13:22:33;22.50;65.44
71173;DHT22;58875;51.996;4.504;2023-08-12T13:24:58;22.56;63.46
71173;DHT22;58875;51.996;4.504;2023-08-12T13:27:24;22.81;65.21
71173;DHT22;58875;51.996;4.504;2023-08-12T13:29:49;22.88;63.29
71173;DHT22;58875;51.996;4.504;2023-08-12T13:32:14;23.00;61.47
71173;DHT22;58875;51.996;4.504;2023-08-12T13:34:41;23.05;60.60
71173;DHT22;58875;51.996;4.504;2023-08-12T13:37:08;23.18;61.15
71173;DHT22;58875;51.996;4.504;2023-08-12T13:39:36;22.80;60.71
71173;DHT22;58875;51.996;4.504;2023-08-12T13:42:02;22.47;61.01
71173;DHT22;58875;51.996;4.504;2023-08-12T13:44:27;22.54;61.96
71173;DHT22;58875;51.996;4.504;2023-08-12T13:46:53;22.73;62.19
71173;DHT22;58875;51.996;4.504;2023-08-12T13:49:19;22.90;62.55
71173;DHT22;58875;51.996;4.504;2023-08-12T13:51:44;22.74;63.54
71173;DHT22;58875;51.996;4.504;2023-08-12T13:54:10;22.67;64.88
71173;DHT22;58875;51.996;4.504;2023-08-12T13:56:35;22.71;65.17
71173;DHT22;58875;51.996;4.504;2023-08-12T13:59:01;22.77;64.85
71173;DHT22;58875;51.996;4.504;2023-08-12T14:01:26;22.78;63.63
71173;DHT22;58875;51.996;4.504;2023-08-12T14:03:54;22.84;61.72
71173;DHT22;58875;51.996;4.504;2023-08-12T14:06:20;22.93;61.83
71173;DHT22;58875;51.996;4.504;2023-08-12T14:08:46;23.03;59.86
71173;DHT22;58875;51.996;4.504;2023-08-12T14:11:11;23.07;57.74
71173;DHT22;58875;51.996;4.504;2023-08-12T14:13:37;23.03;58.21
71173;DHT22;58875;51.996;4.504;2023-08-12T14:16:03;23.07;58.81
71173;DHT22;58875;51.996;4.504;2023-08-12T14:18:28;22.95;60.31
71173;DHT22;58875;51.996;4.504;2023-08-12T14:20:53;22.80;59.36
71173;DHT22;58875;51.996;4.504;2023-08-12T14:23:19;22.78;59.41
71173;DHT22;58875;51.996;4.504;2023-08-12T14:25:45;22.71;59.88
71173;DHT22;58875;51.996;4.504;2023-08-12T14:28:10;22.73;59.24
71173;DHT22;58875;51.996;4.504;2023-08-12T14:30:36;22.76;60.97
71173;DHT22;58875;51.996;4.504;2023-08-12T14:33:02;22.68;57.79
71173;DHT22;58875;51.996;4.504;2023-08-12T14:35:27;22.40;59.24
71173;DHT22;58875;51.996;4.504;2023-08-12T14:37:53;22.60;58.41
71173;DHT22;58875;51.996;4.504;2023-08-12T14:40:18;22.60;57.58
71173;DHT22;58875;51.996;4.504;2023-08-12T14:42:44;22.45;56.75
71173;DHT22;58875;51.996;4.504;2023-08-12T14:45:10;22.47;57.00
71173;DHT22;58875;51.996;4.504;2023-08-12T14:47:35;22.49;57.68
71173;DHT22;58875;51.996;4.504;2023-08-12T14:50:01;22.50;57.98
71173;DHT22;58875;51.996;4.504;2023-08-12T14:52:26;22.40;58.26
71173;DHT22;58875;51.996;4.504;2023-08-12T14:54:52;22.22;58.04
71173;DHT22;58875;51.996;4.504;2023-08-12T14:57:17;22.25;57.73
71173;DHT22;58875;51.996;4.504;2023-08-12T14:59:43;22.13;56.84
71173;DHT22;58875;51.996;4.504;2023-08-12T15:02:09;22.20;57.91
71173;DHT22;58875;51.996;4.504;2023-08-12T15:04:34;22.33;58.35
71173;DHT22;58875;51.996;4.504;2023-08-12T15:07:00;22.43;58.94
71173;DHT22;58875;51.996;4.504;2023-08-12T15:09:26;22.47;56.76
71173;DHT22;58875;51.996;4.504;2023-08-12T15:11:51;22.53;57.74
71173;DHT22;58875;51.996;4.504;2023-08-12T15:14:17;22.80;57.94
71173;DHT22;58875;51.996;4.504;2023-08-12T15:16:43;22.86;56.86
71173;DHT22;58875;51.996;4.504;2023-08-12T15:19:08;22.56;57.22
71173;DHT22;58875;51.996;4.504;2023-08-12T15:21:34;22.46;57.52
71173;DHT22;58875;51.996;4.504;2023-08-12T15:24:00;22.53;58.32
71173;DHT22;58875;51.996;4.504;2023-08-12T15:26:25;22.67;58.23
71173;DHT22;58875;51.996;4.504;2023-08-12T15:28:51;22.59;59.42
71173;DHT22;58875;51.996;4.504;2023-08-12T15:31:16;22.47;60.12
71173;DHT22;58875;51.996;4.504;2023-08-12T15:33:42;22.56;60.83
71173;DHT22;58875;51.996;4.504;2023-08-12T15:36:07;22.66;60.11